San Diego, California
Traffic Map
Current Weather Conditions
San Diego, California
Broken Clouds
Broken Clouds
58°
Feels Like: 58°
Wind Chill: 58° Ceiling: 1500
Heat Index: 58° Visibility: 10mi
Dew Point: 53° Wind: 3mph
Humidity: 84% Direction: 360° (N)
Pressure: 30.03in Gusts: 0mph
Raw Report DataKSAN 281251Z 36003KT 10SM BKN015 BKN250 14/12 A3003 RMK AO2 SLP167 T01440117
Traffic Incident Summary
Active as of:
Severity:
Category:
InformationThere was an issue retrieving the traffic information for this location. Please try a different location or try again shortly.
Advertisements
Track Severe Weather on mobile